Flight Track Log - Related Links

Times and Time Zones

All times are in EDT time to prevent confusion due to time zone crossing. See the CNS128 flight status page for this flight to view local times or setup timezone preferences in your user account.

Time Position Orientation Groundspeed Altitude Reporting Facility
EDT Latitude Longitude Course Direction KTS MPH feet Rate Location/Type
Fri 02:35:48 PM 41.5592 -81.7128 316° Northwest 188 216 2,000  Level Cleveland Center
Fri 02:36:12 PM 41.5733 -81.7336 312° West 166 191 2,600 1,800 Climbing Cleveland Center
Fri 02:36:48 PM 41.5853 -81.7728 292° West 191 220 3,800 1,714 Climbing Cleveland Center
Fri 02:37:15 PM 41.5903 -81.7975 285° West 175 201 4,400 1,309 Climbing Cleveland Center
Fri 02:37:43 PM 41.5989 -81.8311 289° West 180 207 5,000 1,258 Climbing Cleveland Center
Fri 02:38:17 PM 41.6072 -81.8611 290° West 176 203 5,700 1,400 Climbing Cleveland Center
Fri 02:38:43 PM 41.6200 -81.8961 296° West 190 219 6,400 1,258 Climbing Cleveland Center
Fri 02:39:19 PM 41.6308 -81.9253 296° West 186 214 7,000 1,180 Climbing Cleveland Center
Fri 02:39:44 PM 41.6417 -81.9583 294° West 189 217 7,600 871 Climbing Cleveland Center
Fri 02:40:21 PM 41.6506 -81.9919 290° West 190 219 7,900 400 Climbing Cleveland Center
Fri 02:40:44 PM 41.6622 -82.0289 293° West 209 241 8,000 97 Climbing Cleveland Center
Fri 02:41:23 PM 41.6794 -82.0831 293° West 225 259 8,000  Level Cleveland Center
Fri 02:41:51 PM 41.6911 -82.1236 291° West 245 282 8,000  Level Cleveland Center
Fri 02:42:25 PM 41.7031 -82.1647 291° West 238 274 8,000  Level Cleveland Center
Fri 02:42:52 PM 41.7167 -82.2092 292° West 249 287 8,000  Level Cleveland Center
Fri 02:43:28 PM 41.7300 -82.2494 294° West 243 280 8,000  Level Cleveland Center
Fri 02:43:50 PM 41.7386 -82.2894 286° West 252 290 8,000  Level Cleveland Center
Fri 02:44:30 PM 41.7561 -82.3358 297° West 246 283 8,000  Level Cleveland Center
Fri 02:45:16 PM 41.7781 -82.4144 291° West 250 288 8,000  Level Cleveland Center
Fri 02:45:32 PM 41.7822 -82.4211 310° West 246 283 8,000  Level Cleveland Center
Fri 02:46:17 PM 41.8033 -82.5017 289° West 249 287 8,000  Level Cleveland Center
Fri 02:46:34 PM 41.8128 -82.5250 299° West 248 285 8,000  Level Cleveland Center
Fri 02:47:18 PM 41.8306 -82.5919 290° West 248 285 8,000  Level Cleveland Center
Fri 02:47:36 PM 41.8392 -82.6106 302° West 248 285 8,000  Level Cleveland Center
Fri 02:48:19 PM 41.8739 -82.6561 316° Northwest 250 288 8,000  Level Cleveland Center
Fri 02:48:38 PM 41.8894 -82.6606 348° North 241 277 8,000 -179 Level Cleveland Center
Fri 02:49:26 PM 41.9458 -82.6767 348° North 243 280 7,800 -286 Descending Cleveland Center
Fri 02:49:41 PM 41.9558 -82.6778 355° North 243 280 7,700 -787 Descending Cleveland Center
Fri 02:50:27 PM 42.0178 -82.6944 349° North 253 291 7,000 -677 Descending Cleveland Center
Fri 02:50:43 PM 42.0244 -82.6958 351° North 247 284 7,000 -689 Level Cleveland Center
Fri 02:51:28 PM 42.0775 -82.7078 351° North 195 224 6,300 -774 Descending Cleveland Center
Fri 02:51:45 PM 42.0939 -82.7117 350° North 218 251 6,200 -655 Descending Cleveland Center
Fri 02:52:23 PM 42.1269 -82.7200 349° North 196 226 5,700 -774 Descending Cleveland Center
Fri 02:52:47 PM 42.1458 -82.7256 348° North 198 228 5,400 -787 Descending Cleveland Center
Fri 02:53:24 PM 42.1864 -82.7361 349° North 230 265 4,900 -677 Descending Cleveland Center
Fri 02:53:49 PM 42.2075 -82.7389 354° North 215 247 4,700 -787 Descending Cleveland Center
Fri 02:54:25 PM 42.2436 -82.7578 339° North 210 242 4,100 -774 Descending Cleveland Center
Fri 02:54:51 PM 42.2586 -82.7758 318° Northwest 218 251 3,900 -787 Descending Cleveland Center
Fri 02:55:26 PM 42.2894 -82.8175 315° West 221 254 3,300 -762 Descending Cleveland Center
Fri 02:55:54 PM 42.3003 -82.8344 311° West 218 251 3,100 -295 Descending Cleveland Center
Fri 02:56:27 PM 42.3311 -82.8767 315° West 216 249 3,000 -97 Descending Cleveland Center
Fri 02:56:56 PM 42.3500 -82.9033 314° West 218 251 3,000  Level Cleveland Center
Fri 02:57:34 PM 42.3747 -82.9389 313° West 207 238 3,000  Level Cleveland Center
Fri 02:57:58 PM 42.3900 -82.9592 316° Northwest 209 241 3,000  Level Cleveland Center
Fri 02:58:29 PM 42.4128 -82.9922 313° West 222 255 3,000  Level Cleveland Center
Fri 02:59:00 PM 42.4325 -83.0203 314° West 219 252 3,000  Level Cleveland Center
Fri 03:00:02 PM 42.4736 -83.0786 314° West 219 252 3,000  Level Cleveland Center

Login

Don't have an account? Register now (free) for customized features, flight alerts, and more!